Yass Linton Hostel, New South Wales

4:02 AM AEST on June 04, 2015 (GMT +1000)
Urban environment | | Change Station
CLOSE
Current Station
Personal Weather Station
Location: Yass, NEW SOUTH WALES
Elevation: 1709 ft
Nearby Weather Stations

Elev 1709 ft 34.85 °S, 148.91 °E | Updated 1 second ago

Clear
Clear
25.0 °F
Feels Like 25 °F
N
0.7
Wind Variable Wind from East
Gusts 2.2 mph

Today
High -- | Low -- °F
--% Chance of Precip.
Yesterday
High -- | Low -- °F
Precip. -- in
7:04 AM 5:00 PM
Full, 99% visible
Pressure 30.18 in
Visibility 6.2 miles
Clouds
Windchill 25 °F
Dew Point 18 °F
Humidity 76%
Rainfall 0.00 in
Snow Depth Not available.
UV Not available.
Pollen Not available.
Air Quality Not available.
Flu Activity Not available.
METAR YSCB 031730Z AUTO 00000KT 9999 // NCD M05/M07 Q1022

More Conditions Fewer Conditions

Pressure 30.18 in
Visibility 6.2 miles
Clouds
Windchill 25 °F
Dew Point 18 °F
Humidity 76%
Rainfall 0.00 in
Snow Depth Not available.
UV Not available.
Pollen Not available.
Air Quality Not available.
Flu Activity Not available.
METAR YSCB 031730Z AUTO 00000KT 9999 // NCD M05/M07 Q1022

More Conditions Fewer Conditions

10-Day Weather Forecast

×

Almanac

Astronomy

Jun. 04, 2015 Rise Set
Actual Time
Civil Twilight
Nautical Twilight
Astronomical Twilight
Moon
Length of Visible Light
Length of Day
Tomorrow will be .
, % of the Moon is Illuminated

Today's Extremes

Country Highs Country Lows

Community

WunderPhotos

Upload Photos

1,826,267 photos uploaded!

WunderBlogs® & News

Nearby

Air Quality

  Air Quality AQ Index Pollutant
Not available.

Snow Depth

Station Depth Elevation

Earthquake Activity

City Distance Mag. Time & Date
Minimum magnitude displayed is 2.5.

Coastal Water Temperatures

Place Temperature

Stations

Nearby Weather Stations

Station Location Temp. Windchill Dew Point Humidity Wind Precip. Elev Updated Type